Terminal Aerodrome Forecast
Issued by NWS

Home | Current Version | Previous Version | Text Only | Print | Product List | Glossary Off
Versions: 1 2 3 4 5 6 7 8 9 10 11 12 13 14 15 16 17 18 19 20 21 22 23 24 25 26 27 28 29 30 31 32 33

000
FTUS45 KGGW 232300
TAFOLF
TAF
KOLF 232336Z 2400/2424 08016KT P6SM SCT090
     FM240700 07012KT 3SM -RA OVC090
     FM241200 31007KT 2SM -SN OVC018
     FM241500 29012KT 3SM -SN OVC022
     FM241800 30016KT P6SM VCSH OVC040=

USA.gov is the U.S. government's official web portal to all federal, state and local government web resources and services.